Time;durP1;ratioP1;P1;durP2;ratioP2;P2;SDS_P1;SDS_P2;PMS_P1;PMS_P2;Temp;Humidity;BMP_temperature;BMP_pressure;BME280_temperature;BME280_humidity;BME280_pressure;Samples;Min_cycle;Max_cycle;Signal;HPM_P1;HPM_P2
2022/08/24 00:02:13;;;;;;;6.30;4.38;;;23.00;95.90;;;;;;5046968;28;20091;-36
2022/08/24 00:04:39;;;;;;;4.10;3.50;;;23.00;96.00;;;;;;5046871;28;20041;-37
2022/08/24 00:07:06;;;;;;;4.22;3.83;;;23.00;96.00;;;;;;5047626;28;20013;-36
2022/08/24 00:09:32;;;;;;;5.03;4.15;;;22.90;96.10;;;;;;5045813;28;20435;-36
2022/08/24 00:11:58;;;;;;;4.10;3.47;;;22.90;96.20;;;;;;5047041;28;20464;-37
2022/08/24 00:14:24;;;;;;;5.40;3.95;;;22.90;96.30;;;;;;5046190;28;20037;-36
2022/08/24 00:16:50;;;;;;;5.05;3.90;;;22.80;96.30;;;;;;5047611;28;20025;-36
2022/08/24 00:19:15;;;;;;;4.72;3.75;;;22.80;96.40;;;;;;5047436;28;20207;-36
2022/08/24 00:21:41;;;;;;;4.97;4.13;;;22.80;96.50;;;;;;5046200;28;20113;-36
2022/08/24 00:24:07;;;;;;;5.15;3.45;;;22.80;96.50;;;;;;5046382;28;20033;-35
2022/08/24 00:26:34;;;;;;;5.20;4.20;;;22.80;96.60;;;;;;5047358;28;20029;-35
2022/08/24 00:29:00;;;;;;;4.75;3.67;;;22.80;96.70;;;;;;5045972;28;20032;-35
2022/08/24 00:31:26;;;;;;;4.75;3.70;;;22.80;96.80;;;;;;5046705;28;20039;-35
2022/08/24 00:33:51;;;;;;;4.30;3.90;;;22.80;96.80;;;;;;5046159;28;20021;-37
2022/08/24 00:36:17;;;;;;;4.47;3.78;;;22.70;96.80;;;;;;5046048;28;20459;-36
2022/08/24 00:38:42;;;;;;;6.05;4.05;;;22.70;96.90;;;;;;5046880;28;20070;-36
2022/08/24 00:41:08;;;;;;;4.25;3.80;;;22.70;96.90;;;;;;5046588;28;20060;-37
2022/08/24 00:43:34;;;;;;;4.85;3.78;;;22.70;97.00;;;;;;5045262;28;20052;-36
2022/08/24 00:46:24;;;;;;;3.72;3.40;;;22.60;97.10;;;;;;5045871;28;20029;-36
2022/08/24 00:49:05;;;;;;;5.75;4.25;;;22.60;97.20;;;;;;5045976;28;20029;-34
2022/08/24 00:51:37;;;;;;;4.57;4.00;;;22.60;97.30;;;;;;5045759;28;20017;-35
2022/08/24 00:54:15;;;;;;;4.88;4.35;;;22.50;97.40;;;;;;5046087;28;20312;-36
2022/08/24 00:56:50;;;;;;;4.63;4.03;;;22.50;97.50;;;;;;5045495;28;20104;-36
2022/08/24 00:59:29;;;;;;;6.57;4.00;;;22.50;97.60;;;;;;5046141;28;20060;-36
2022/08/24 01:01:57;;;;;;;5.75;4.40;;;22.40;97.70;;;;;;5034890;28;20068;-35
2022/08/24 01:04:31;;;;;;;6.20;3.85;;;22.40;97.70;;;;;;5045315;28;20488;-37
2022/08/24 01:06:57;;;;;;;5.13;4.25;;;22.40;97.80;;;;;;5045894;28;20603;-36
2022/08/24 01:09:22;;;;;;;5.25;4.45;;;22.40;97.90;;;;;;5046594;28;20384;-36
2022/08/24 01:11:48;;;;;;;5.32;4.82;;;22.30;97.90;;;;;;5044846;28;20032;-37
2022/08/24 01:14:16;;;;;;;5.88;5.00;;;22.30;98.00;;;;;;5046531;28;20029;-36
2022/08/24 01:19:34;;;;;;;5.30;4.90;;;22.30;98.20;;;;;;5045041;28;20546;-36
2022/08/24 01:22:05;;;;;;;5.80;4.90;;;22.20;98.30;;;;;;5045248;28;20410;-36
2022/08/24 01:24:31;;;;;;;5.97;5.13;;;22.20;98.40;;;;;;5045647;28;20051;-36
2022/08/24 01:26:58;;;;;;;5.57;5.07;;;22.20;98.40;;;;;;5045342;28;20108;-35
2022/08/24 01:29:26;;;;;;;7.53;5.60;;;22.20;98.50;;;;;;5046408;28;20029;-35
2022/08/24 01:31:53;;;;;;;7.28;5.07;;;22.20;98.60;;;;;;5044368;28;20021;-35
2022/08/24 01:34:20;;;;;;;5.95;5.22;;;22.20;98.70;;;;;;5046100;28;20033;-36
2022/08/24 01:36:59;;;;;;;6.80;5.60;;;22.20;98.80;;;;;;5044574;28;20040;-37
2022/08/24 01:39:27;;;;;;;5.18;4.70;;;22.20;98.90;;;;;;5044888;28;20040;-36
2022/08/24 01:41:53;;;;;;;6.40;4.88;;;22.20;99.00;;;;;;5045409;28;20110;-36
2022/08/24 01:44:21;;;;;;;6.32;4.97;;;22.10;99.00;;;;;;5045956;28;20067;-35
2022/08/24 01:46:49;;;;;;;4.80;4.30;;;22.10;99.10;;;;;;5044229;28;20025;-35
2022/08/24 01:49:16;;;;;;;5.00;4.50;;;22.10;99.20;;;;;;5044868;28;20563;-36
2022/08/24 01:51:42;;;;;;;4.97;4.43;;;22.00;99.20;;;;;;5045270;28;20055;-35
2022/08/24 01:54:08;;;;;;;6.03;4.72;;;22.00;99.30;;;;;;5045007;28;20025;-35
2022/08/24 01:56:35;;;;;;;5.07;4.38;;;22.00;99.40;;;;;;5043686;28;20013;-35
2022/08/24 01:59:01;;;;;;;5.22;4.72;;;22.00;99.50;;;;;;5045087;28;20036;-36
2022/08/24 02:01:29;;;;;;;5.75;5.13;;;21.90;99.60;;;;;;5044510;28;20017;-35
2022/08/24 02:03:56;;;;;;;7.15;4.70;;;21.90;99.70;;;;;;5045133;28;20055;-34
2022/08/24 02:06:22;;;;;;;6.10;4.55;;;21.90;99.80;;;;;;5045132;28;20043;-35
2022/08/24 02:08:47;;;;;;;6.05;4.70;;;21.90;99.90;;;;;;5044329;28;20036;-35
2022/08/24 02:11:13;;;;;;;4.90;4.50;;;21.90;99.90;;;;;;5045241;28;20025;-35
2022/08/24 02:13:40;;;;;;;5.30;4.43;;;21.80;99.90;;;;;;5044162;28;20029;-36
2022/08/24 02:16:06;;;;;;;4.78;4.30;;;21.80;99.90;;;;;;5043741;28;20423;-36
2022/08/24 02:18:33;;;;;;;5.00;4.50;;;21.80;99.90;;;;;;5044250;28;20021;-37
2022/08/24 02:21:00;;;;;;;6.80;4.50;;;21.80;99.90;;;;;;5044146;28;20032;-35
2022/08/24 02:23:27;;;;;;;5.15;4.65;;;21.80;99.90;;;;;;5044619;28;20079;-37
2022/08/24 02:25:54;;;;;;;6.55;4.75;;;21.80;99.90;;;;;;5044185;28;20029;-36
2022/08/24 02:28:19;;;;;;;5.03;4.43;;;21.80;99.90;;;;;;5043850;28;20029;-35
2022/08/24 02:30:45;;;;;;;5.65;5.13;;;21.70;99.90;;;;;;5044689;28;20041;-35
2022/08/24 02:33:11;;;;;;;9.07;5.30;;;21.70;99.90;;;;;;5044689;28;20025;-35
2022/08/24 02:35:37;;;;;;;6.80;5.15;;;21.80;99.90;;;;;;5043633;28;20082;-36
2022/08/24 02:38:02;;;;;;;6.20;5.05;;;21.80;99.90;;;;;;5044190;28;20025;-36
2022/08/24 02:40:28;;;;;;;7.03;5.78;;;21.80;99.90;;;;;;5044223;28;20035;-35
2022/08/24 02:42:54;;;;;;;6.93;5.43;;;21.70;99.90;;;;;;5043298;28;20459;-38
2022/08/24 02:45:20;;;;;;;6.60;5.40;;;21.80;99.90;;;;;;5044720;28;20033;-36
2022/08/24 02:47:46;;;;;;;5.68;5.05;;;21.70;99.90;;;;;;5043728;28;20387;-36
2022/08/24 02:50:14;;;;;;;6.07;5.22;;;21.80;99.90;;;;;;5043523;28;20072;-36
2022/08/24 02:52:40;;;;;;;8.27;6.35;;;21.70;99.90;;;;;;5043948;28;20036;-36
2022/08/24 02:55:09;;;;;;;7.30;5.75;;;21.70;99.90;;;;;;5042785;28;20110;-36
2022/08/24 02:57:34;;;;;;;6.57;5.80;;;21.70;99.90;;;;;;5043442;28;20108;-36
2022/08/24 03:00:00;;;;;;;5.45;4.95;;;21.70;99.90;;;;;;5043950;28;20082;-36
2022/08/24 03:02:26;;;;;;;6.00;5.40;;;21.70;99.90;;;;;;5044323;28;20055;-35
2022/08/24 03:04:52;;;;;;;6.28;5.68;;;21.70;99.90;;;;;;5042859;28;20071;-34
2022/08/24 03:07:18;;;;;;;7.95;6.15;;;21.70;99.90;;;;;;5044591;28;20029;-35
2022/08/24 03:09:43;;;;;;;6.18;5.60;;;21.60;99.90;;;;;;5043546;28;20037;-36
2022/08/24 03:12:10;;;;;;;6.47;5.85;;;21.60;99.90;;;;;;5043506;28;20025;-35
2022/08/24 03:14:36;;;;;;;7.65;5.82;;;21.60;99.90;;;;;;5043778;28;20477;-35
2022/08/24 03:17:02;;;;;;;7.38;6.10;;;21.60;99.90;;;;;;5044017;28;20154;-35
2022/08/24 03:19:28;;;;;;;7.53;5.50;;;21.60;99.90;;;;;;5043006;28;20055;-36
2022/08/24 03:21:54;;;;;;;6.22;5.60;;;21.60;99.90;;;;;;5044558;28;20516;-36
2022/08/24 03:24:20;;;;;;;5.93;5.40;;;21.60;99.90;;;;;;5043428;28;20025;-36
2022/08/24 03:26:46;;;;;;;6.70;5.70;;;21.60;99.90;;;;;;5043788;28;20025;-36
2022/08/24 03:29:12;;;;;;;7.13;5.35;;;21.50;99.90;;;;;;5044919;28;20292;-35
2022/08/24 03:31:38;;;;;;;7.00;5.72;;;21.60;99.90;;;;;;5043542;28;20029;-35
2022/08/24 03:34:04;;;;;;;6.38;5.70;;;21.50;99.90;;;;;;5044289;28;20025;-36
2022/08/24 03:36:29;;;;;;;8.40;6.45;;;21.50;99.90;;;;;;5042911;28;20017;-36
2022/08/24 03:38:55;;;;;;;6.80;6.03;;;21.50;99.90;;;;;;5023174;28;20041;-35
2022/08/24 03:41:21;;;;;;;9.38;6.20;;;21.50;99.90;;;;;;5042154;28;20353;-35
2022/08/24 03:43:47;;;;;;;7.25;5.88;;;21.50;99.90;;;;;;5043999;28;20025;-35
2022/08/24 03:46:19;;;;;;;6.15;5.57;;;21.40;99.90;;;;;;5043634;28;20040;-35
2022/08/24 03:48:46;;;;;;;6.47;5.65;;;21.40;99.90;;;;;;5043840;28;20056;-36
2022/08/24 03:51:17;;;;;;;6.47;5.65;;;21.50;99.90;;;;;;5043784;28;20373;-35
2022/08/24 03:53:43;;;;;;;6.85;6.15;;;21.40;99.90;;;;;;5042893;28;20028;-35
2022/08/24 03:56:09;;;;;;;7.43;6.57;;;21.40;99.90;;;;;;5043867;28;20025;-36
2022/08/24 03:58:38;;;;;;;7.80;6.70;;;21.40;99.90;;;;;;5043491;28;20025;-36
2022/08/24 04:01:04;;;;;;;7.45;5.50;;;21.40;99.90;;;;;;5042789;28;20025;-34
2022/08/24 04:03:34;;;;;;;7.45;6.18;;;21.40;99.90;;;;;;5043977;28;20074;-35
2022/08/24 04:06:00;;;;;;;7.38;5.90;;;21.40;99.90;;;;;;5043503;28;20595;-41
2022/08/24 04:08:25;;;;;;;8.32;6.78;;;21.40;99.90;;;;;;5043370;28;20021;-36
2022/08/24 04:10:52;;;;;;;7.15;6.50;;;21.40;99.90;;;;;;5043532;28;20033;-35
2022/08/24 04:13:18;;;;;;;7.22;6.20;;;21.40;99.90;;;;;;5044151;28;20068;-37
2022/08/24 04:15:43;;;;;;;7.10;6.40;;;21.40;99.90;;;;;;5042109;28;20051;-35
2022/08/24 04:18:09;;;;;;;7.28;6.57;;;21.40;99.90;;;;;;5044070;28;20379;-35
2022/08/24 04:20:40;;;;;;;7.13;6.43;;;21.40;99.90;;;;;;5044545;28;20021;-37
2022/08/24 04:23:06;;;;;;;7.13;6.43;;;21.40;99.90;;;;;;5046516;28;20171;-35
2022/08/24 04:25:42;;;;;;;6.78;6.15;;;21.30;99.90;;;;;;5047552;28;20032;-36
2022/08/24 04:28:08;;;;;;;6.78;5.80;;;21.40;99.90;;;;;;5045744;28;20159;-36
2022/08/24 04:30:38;;;;;;;5.68;5.18;;;21.30;99.90;;;;;;5046869;28;20045;-36
2022/08/24 04:33:03;;;;;;;6.07;5.47;;;21.30;99.90;;;;;;5046678;28;20787;-36
2022/08/24 04:35:29;;;;;;;6.97;6.28;;;21.20;99.90;;;;;;5046102;28;20539;-35
2022/08/24 04:37:54;;;;;;;6.53;5.70;;;21.20;99.90;;;;;;5046562;28;20024;-36
2022/08/24 04:40:20;;;;;;;6.28;5.68;;;21.20;99.90;;;;;;5046780;28;20028;-35
2022/08/24 04:42:45;;;;;;;6.82;6.22;;;21.20;99.90;;;;;;5045688;28;20496;-36
2022/08/24 04:45:11;;;;;;;6.63;6.03;;;21.10;99.90;;;;;;5046785;28;20036;-34
2022/08/24 04:47:36;;;;;;;6.82;6.13;;;21.20;99.90;;;;;;5045848;28;20279;-36
2022/08/24 04:50:02;;;;;;;6.55;5.95;;;21.10;99.90;;;;;;5045856;28;20044;-36
2022/08/24 04:52:28;;;;;;;8.10;6.30;;;21.10;99.90;;;;;;5045770;28;20107;-36
2022/08/24 04:54:53;;;;;;;6.60;5.65;;;21.00;99.90;;;;;;5045780;28;20629;-36
2022/08/24 04:57:19;;;;;;;6.32;5.80;;;21.00;99.90;;;;;;5045864;28;20073;-34
2022/08/24 04:59:45;;;;;;;7.35;5.95;;;21.00;99.90;;;;;;5045880;28;20059;-35
2022/08/24 05:02:11;;;;;;;7.22;6.53;;;21.00;99.90;;;;;;5046701;28;20052;-36
2022/08/24 05:04:36;;;;;;;8.65;6.75;;;21.00;99.90;;;;;;5044702;28;20072;-36
2022/08/24 05:07:02;;;;;;;7.68;6.88;;;21.00;99.90;;;;;;5046253;28;20021;-36
2022/08/24 05:09:28;;;;;;;8.95;6.68;;;21.00;99.90;;;;;;5045723;28;20569;-36
2022/08/24 05:11:54;;;;;;;8.63;6.88;;;21.00;99.90;;;;;;5045469;28;20025;-36
2022/08/24 05:14:19;;;;;;;7.38;6.25;;;21.10;99.90;;;;;;5045807;28;20031;-35
2022/08/24 05:16:45;;;;;;;6.53;5.85;;;21.10;99.90;;;;;;5044759;28;20021;-37
2022/08/24 05:19:11;;;;;;;8.40;6.10;;;21.20;99.90;;;;;;5045443;28;20505;-36
2022/08/24 05:21:38;;;;;;;7.13;6.20;;;21.20;99.90;;;;;;5045953;28;20033;-35
2022/08/24 05:24:04;;;;;;;6.72;6.03;;;21.20;99.90;;;;;;5044740;28;20420;-36
2022/08/24 05:26:30;;;;;;;8.32;6.50;;;21.20;99.90;;;;;;5045321;28;20063;-37
2022/08/24 05:28:58;;;;;;;8.02;6.30;;;21.20;99.90;;;;;;5045265;28;20492;-36
2022/08/24 05:31:26;;;;;;;6.85;6.25;;;21.20;99.90;;;;;;5044731;28;20025;-35
2022/08/24 05:33:52;;;;;;;6.93;6.22;;;21.20;99.90;;;;;;5045085;28;20032;-36
2022/08/24 05:36:20;;;;;;;7.38;6.68;;;21.20;99.90;;;;;;5045880;28;20025;-37
2022/08/24 05:38:48;;;;;;;7.40;6.65;;;21.20;99.90;;;;;;5044749;28;20036;-36
2022/08/24 05:41:15;;;;;;;6.90;6.25;;;21.30;99.90;;;;;;5045848;28;20036;-35
2022/08/24 05:43:41;;;;;;;7.50;6.82;;;21.30;99.90;;;;;;5045697;28;20029;-35
2022/08/24 05:46:07;;;;;;;7.20;6.50;;;21.40;99.90;;;;;;5044959;28;20043;-35
2022/08/24 05:48:34;;;;;;;6.25;5.65;;;21.40;99.90;;;;;;5042141;28;20025;-36
2022/08/24 05:51:00;;;;;;;6.10;5.60;;;21.40;99.90;;;;;;5045122;28;20107;-36
2022/08/24 05:53:25;;;;;;;7.03;6.07;;;21.40;99.90;;;;;;5042738;28;20100;-37
2022/08/24 05:55:51;;;;;;;6.53;5.50;;;21.50;99.90;;;;;;5043937;28;20638;-36
2022/08/24 05:58:16;;;;;;;6.07;5.57;;;21.50;99.90;;;;;;5044675;28;20140;-37
2022/08/24 06:00:44;;;;;;;6.63;5.75;;;21.60;99.90;;;;;;5043757;28;20060;-36
2022/08/24 06:03:11;;;;;;;9.10;5.45;;;21.60;99.90;;;;;;5044496;28;20058;-37
2022/08/24 06:05:41;;;;;;;10.13;6.65;;;21.60;99.90;;;;;;5043459;28;20075;-36
2022/08/24 06:08:08;;;;;;;9.07;7.05;;;21.60;99.90;;;;;;5043382;28;20024;-37
2022/08/24 06:10:43;;;;;;;7.53;6.82;;;21.60;99.90;;;;;;5044436;28;20039;-37
2022/08/24 06:13:10;;;;;;;7.70;6.60;;;21.70;99.90;;;;;;5043595;28;20106;-37
2022/08/24 06:15:37;;;;;;;9.60;6.35;;;21.70;99.90;;;;;;5043557;28;20029;-36
2022/08/24 06:18:03;;;;;;;6.47;5.90;;;21.80;99.90;;;;;;5043909;28;20033;-37
2022/08/24 06:20:30;;;;;;;7.60;6.65;;;21.80;99.90;;;;;;5042657;28;20063;-37
2022/08/24 06:22:55;;;;;;;7.60;6.50;;;21.80;99.90;;;;;;5043782;28;20029;-37
2022/08/24 06:28:05;;;;;;;7.13;6.43;;;21.90;99.90;;;;;;5033813;28;20040;-36
2022/08/24 06:30:31;;;;;;;7.28;6.60;;;21.90;99.90;;;;;;5042855;28;20025;-36
2022/08/24 06:33:00;;;;;;;9.93;6.88;;;21.90;99.90;;;;;;5043679;28;20056;-37
2022/08/24 06:35:26;;;;;;;7.72;6.93;;;22.00;99.90;;;;;;5043177;28;20319;-35
2022/08/24 06:37:52;;;;;;;7.97;6.95;;;22.00;99.90;;;;;;5043897;28;20048;-36
2022/08/24 06:40:19;;;;;;;7.57;6.78;;;22.00;99.90;;;;;;5044843;28;20041;-36
2022/08/24 06:42:45;;;;;;;7.97;7.25;;;22.10;99.90;;;;;;5041079;28;20017;-38
2022/08/24 06:45:11;;;;;;;7.85;7.15;;;22.10;99.90;;;;;;5044746;28;20028;-36
2022/08/24 06:47:36;;;;;;;7.85;7.15;;;22.20;99.90;;;;;;5043897;28;20451;-36
2022/08/24 06:50:03;;;;;;;8.02;7.22;;;22.20;99.90;;;;;;5043244;28;20090;-36
2022/08/24 06:52:28;;;;;;;7.68;6.97;;;22.20;99.90;;;;;;5043605;28;20601;-36
2022/08/24 06:54:54;;;;;;;7.90;7.10;;;22.30;99.90;;;;;;5043580;28;20021;-36
2022/08/24 06:57:20;;;;;;;7.55;6.85;;;22.40;99.90;;;;;;5042880;28;20032;-37
2022/08/24 06:59:45;;;;;;;9.52;7.00;;;22.40;99.90;;;;;;5043733;28;20048;-37
2022/08/24 07:02:14;;;;;;;8.13;7.32;;;22.40;99.90;;;;;;5044157;28;20009;-35
2022/08/24 07:04:41;;;;;;;7.30;6.60;;;22.40;99.90;;;;;;5043843;28;20441;-36
2022/08/24 07:07:07;;;;;;;7.13;6.53;;;22.50;99.90;;;;;;5043649;28;20032;-35
2022/08/24 07:09:33;;;;;;;7.45;6.70;;;22.50;99.90;;;;;;5042992;28;20021;-36
2022/08/24 07:11:59;;;;;;;8.10;6.68;;;22.60;99.90;;;;;;5043933;28;20017;-36
2022/08/24 07:14:24;;;;;;;7.20;6.50;;;22.60;99.90;;;;;;5044663;28;20021;-36
2022/08/24 07:16:50;;;;;;;9.48;8.57;;;22.70;99.90;;;;;;5043045;28;20025;-35
2022/08/24 07:19:15;;;;;;;9.10;7.07;;;22.70;99.90;;;;;;5043707;28;20116;-36
2022/08/24 07:21:41;;;;;;;7.53;6.82;;;22.80;99.90;;;;;;5044171;28;20020;-35
2022/08/24 07:24:07;;;;;;;8.52;6.72;;;22.80;99.90;;;;;;5040911;28;20380;-36
2022/08/24 07:26:33;;;;;;;7.80;6.90;;;22.80;99.90;;;;;;5043577;28;20017;-35
2022/08/24 07:29:05;;;;;;;7.40;6.70;;;22.90;99.90;;;;;;5043157;28;20040;-36
2022/08/24 07:31:36;;;;;;;7.10;6.40;;;22.90;99.90;;;;;;5043037;28;20033;-37
2022/08/24 07:34:03;;;;;;;7.35;6.65;;;23.00;99.90;;;;;;5043299;28;20059;-36
2022/08/24 07:36:29;;;;;;;7.13;6.22;;;23.00;99.90;;;;;;5043628;28;20657;-36
2022/08/24 07:38:56;;;;;;;8.88;6.60;;;23.00;99.90;;;;;;5042299;28;20032;-36
2022/08/24 07:41:24;;;;;;;6.63;6.03;;;23.10;99.90;;;;;;5043209;28;20028;-36
2022/08/24 07:43:50;;;;;;;7.35;5.57;;;23.10;99.90;;;;;;5043122;28;20072;-36
2022/08/24 07:46:16;;;;;;;6.38;5.38;;;23.20;99.90;;;;;;5043993;28;20124;-36
2022/08/24 07:48:41;;;;;;;7.40;6.40;;;23.20;99.90;;;;;;5043155;28;20100;-36
2022/08/24 07:51:12;;;;;;;6.40;5.68;;;23.30;99.90;;;;;;5044140;28;20380;-36
2022/08/24 07:53:38;;;;;;;5.80;5.07;;;23.40;99.90;;;;;;5042999;28;20017;-36
2022/08/24 07:56:04;;;;;;;5.68;5.25;;;23.40;99.90;;;;;;5047501;28;20036;-36
2022/08/24 07:58:30;;;;;;;7.50;5.40;;;23.50;99.90;;;;;;5047443;28;20021;-35
2022/08/24 08:00:56;;;;;;;5.57;4.78;;;23.50;99.90;;;;;;5047502;28;20044;-35
2022/08/24 08:03:24;;;;;;;6.15;5.10;;;23.60;99.90;;;;;;5047459;28;20162;-37
2022/08/24 08:05:55;;;;;;;4.47;4.07;;;23.60;99.90;;;;;;5044922;28;20460;-37
2022/08/24 08:08:21;;;;;;;3.83;3.45;;;23.70;99.90;;;;;;5046256;28;20021;-36
2022/08/24 08:10:47;;;;;;;4.90;3.55;;;23.80;99.90;;;;;;5045775;28;20028;-37
2022/08/24 08:13:12;;;;;;;4.20;3.53;;;23.80;99.90;;;;;;5046128;28;20550;-36
2022/08/24 08:15:38;;;;;;;3.38;3.08;;;23.90;99.90;;;;;;5046996;28;20041;-35
2022/08/24 08:18:03;;;;;;;3.50;3.20;;;23.90;99.90;;;;;;5047422;28;20075;-37
2022/08/24 08:20:29;;;;;;;4.78;3.08;;;24.00;99.90;;;;;;5046099;28;20155;-37
2022/08/24 08:25:39;;;;;;;4.68;3.50;;;24.10;99.90;;;;;;5046561;28;20040;-38
2022/08/24 08:28:05;;;;;;;3.08;2.75;;;24.20;99.90;;;;;;5045935;28;20029;-35
2022/08/24 08:30:31;;;;;;;2.80;2.50;;;24.20;99.90;;;;;;5046294;28;20114;-37
2022/08/24 08:32:57;;;;;;;6.68;2.70;;;24.30;99.90;;;;;;5044710;28;20021;-37
2022/08/24 08:35:23;;;;;;;3.25;2.30;;;24.30;99.90;;;;;;5046019;28;20484;-37
2022/08/24 08:37:48;;;;;;;4.30;2.30;;;24.40;99.90;;;;;;5046632;28;20032;-36
2022/08/24 08:40:46;;;;;;;1.98;1.85;;;24.40;99.70;;;;;;5047154;28;20463;-37
2022/08/24 08:43:35;;;;;;;2.40;2.20;;;24.50;99.50;;;;;;5037588;28;20055;-37
2022/08/24 08:46:09;;;;;;;3.50;2.20;;;24.60;99.30;;;;;;5046602;28;20518;-36
2022/08/24 08:48:47;;;;;;;2.83;1.98;;;24.70;99.10;;;;;;5046411;28;20024;-37
2022/08/24 08:51:25;;;;;;;3.33;2.40;;;24.70;99.00;;;;;;5046588;28;20029;-36
2022/08/24 08:54:06;;;;;;;2.58;2.10;;;24.80;98.90;;;;;;5046540;28;20025;-35
2022/08/24 08:56:52;;;;;;;2.10;1.90;;;24.80;98.80;;;;;;5045318;28;20079;-37
2022/08/24 08:59:37;;;;;;;2.58;2.38;;;24.90;98.60;;;;;;5027161;28;20485;-36
2022/08/24 09:02:24;;;;;;;3.65;1.95;;;25.00;98.40;;;;;;5043429;28;20075;-36
2022/08/24 09:05:02;;;;;;;1.60;1.50;;;25.10;98.20;;;;;;5046802;28;20088;-36
2022/08/24 09:07:49;;;;;;;1.80;1.58;;;25.20;98.10;;;;;;5045406;28;20413;-37
2022/08/24 09:10:49;;;;;;;3.45;1.85;;;25.20;97.90;;;;;;5046182;28;20393;-37
2022/08/24 09:13:38;;;;;;;1.50;1.40;;;25.20;97.70;;;;;;5042496;28;20067;-36
2022/08/24 09:16:32;;;;;;;1.88;1.45;;;25.30;97.60;;;;;;5045882;28;20040;-36
2022/08/24 09:19:04;;;;;;;1.45;1.35;;;25.30;97.30;;;;;;5039728;28;20037;-38
2022/08/24 09:22:00;;;;;;;1.40;1.30;;;25.40;97.20;;;;;;5045943;28;20025;-36
2022/08/24 09:24:32;;;;;;;1.48;1.38;;;25.50;97.00;;;;;;5045485;28;20991;-36
2022/08/24 09:27:18;;;;;;;1.67;1.35;;;25.50;96.90;;;;;;5046292;28;20384;-37
2022/08/24 09:30:03;;;;;;;1.65;1.25;;;25.60;96.80;;;;;;5046017;28;20332;-36
2022/08/24 09:32:50;;;;;;;2.92;1.80;;;25.60;96.70;;;;;;5045231;28;20087;-36
2022/08/24 09:35:38;;;;;;;1.88;1.52;;;25.60;96.50;;;;;;5046102;28;20111;-35
2022/08/24 09:38:13;;;;;;;1.40;1.30;;;25.70;96.30;;;;;;5045388;28;20340;-36
2022/08/24 09:41:18;;;;;;;1.75;1.52;;;25.70;96.00;;;;;;5045759;28;20040;-37
2022/08/24 09:44:21;;;;;;;1.13;1.02;;;25.80;95.90;;;;;;5044856;28;20057;-35
2022/08/24 09:47:09;;;;;;;1.17;1.00;;;25.80;95.90;;;;;;5045212;28;20032;-37
2022/08/24 09:50:10;;;;;;;1.08;1.08;;;25.80;95.70;;;;;;5034978;28;20365;-36
2022/08/24 09:52:50;;;;;;;1.20;1.10;;;25.90;95.60;;;;;;5021938;28;20048;-36
2022/08/24 09:55:30;;;;;;;1.25;1.08;;;25.90;95.50;;;;;;5043155;28;20337;-36
2022/08/24 09:58:17;;;;;;;1.25;1.10;;;26.00;95.30;;;;;;5044612;28;20043;-38
2022/08/24 10:00:46;;;;;;;2.90;1.33;;;26.10;95.00;;;;;;5045312;28;20440;-37
2022/08/24 10:03:27;;;;;;;1.52;1.42;;;26.20;94.90;;;;;;5045653;28;20021;-36
2022/08/24 10:06:11;;;;;;;0.80;0.80;;;26.30;94.70;;;;;;5044204;28;20049;-35
2022/08/24 10:08:53;;;;;;;0.90;0.90;;;26.30;94.30;;;;;;5044680;28;20484;-36
2022/08/24 10:11:24;;;;;;;1.10;0.95;;;26.40;94.10;;;;;;5045746;28;20134;-37
2022/08/24 10:14:16;;;;;;;0.80;0.80;;;26.50;94.30;;;;;;5044556;28;20511;-36
2022/08/24 10:17:03;;;;;;;0.90;0.90;;;26.50;93.70;;;;;;5045188;28;20059;-37
2022/08/24 10:20:06;;;;;;;0.80;0.75;;;26.60;93.60;;;;;;5043655;28;20139;-37
2022/08/24 10:22:58;;;;;;;0.88;0.88;;;26.70;93.40;;;;;;5025181;28;20072;-36
2022/08/24 10:25:30;;;;;;;1.13;0.90;;;26.80;93.30;;;;;;5042310;28;20029;-37
2022/08/24 10:28:14;;;;;;;0.82;0.80;;;26.80;93.10;;;;;;5043919;28;20029;-36
2022/08/24 10:31:01;;;;;;;1.00;0.90;;;26.90;92.90;;;;;;5042318;28;20378;-38
2022/08/24 10:33:54;;;;;;;1.33;0.93;;;27.00;92.80;;;;;;5044237;28;20017;-36
2022/08/24 10:36:28;;;;;;;0.80;0.80;;;27.00;92.70;;;;;;5036105;28;20043;-36
2022/08/24 10:45:38;;;;;;;0.93;0.90;;;27.10;92.40;;;;;;5044656;28;20400;-35
2022/08/24 10:48:19;;;;;;;0.60;0.60;;;27.10;92.20;;;;;;5024042;28;20399;-36
2022/08/24 10:50:53;;;;;;;1.05;0.88;;;27.10;92.10;;;;;;5042410;28;20040;-36
2022/08/24 10:53:24;;;;;;;2.03;0.80;;;27.10;91.90;;;;;;5044593;28;20032;-36
2022/08/24 10:56:04;;;;;;;1.30;1.00;;;27.20;91.70;;;;;;5043745;28;20184;-37
2022/08/24 10:58:38;;;;;;;1.05;0.90;;;27.30;91.60;;;;;;5044630;28;20028;-35
2022/08/24 11:01:32;;;;;;;0.88;0.88;;;27.30;91.50;;;;;;5044162;28;20033;-36
2022/08/24 11:04:22;;;;;;;2.60;1.50;;;27.40;91.40;;;;;;5043607;28;20036;-36
2022/08/24 11:07:03;;;;;;;1.00;0.80;;;27.40;91.50;;;;;;5041532;28;20053;-36
2022/08/24 11:09:45;;;;;;;0.95;0.90;;;27.30;91.40;;;;;;5042830;28;20029;-36
2022/08/24 11:12:29;;;;;;;0.82;0.82;;;27.30;91.40;;;;;;5044105;28;20568;-36
2022/08/24 11:14:58;;;;;;;1.08;1.00;;;27.30;91.40;;;;;;5043905;28;20033;-36
2022/08/24 11:17:27;;;;;;;1.35;1.25;;;27.40;91.30;;;;;;5043622;28;20104;-35
2022/08/24 11:19:53;;;;;;;1.65;1.27;;;27.40;90.80;;;;;;5043913;28;20485;-36
2022/08/24 11:22:55;;;;;;;2.35;1.10;;;27.60;90.70;;;;;;5044333;28;20582;-39
2022/08/24 11:25:31;;;;;;;1.90;1.17;;;27.70;90.40;;;;;;5044566;28;20572;-36
2022/08/24 11:28:09;;;;;;;0.82;0.82;;;27.80;90.40;;;;;;5034566;28;20048;-36
2022/08/24 11:30:39;;;;;;;1.20;1.10;;;27.90;90.30;;;;;;5046992;28;20104;-37
2022/08/24 11:33:22;;;;;;;1.70;1.00;;;28.00;90.30;;;;;;5037627;28;20014;-37
2022/08/24 11:35:48;;;;;;;1.20;1.10;;;28.10;90.10;;;;;;5047666;28;20423;-37
2022/08/24 11:38:35;;;;;;;1.30;1.17;;;28.20;90.00;;;;;;5047877;28;20029;-36
2022/08/24 11:41:14;;;;;;;2.17;1.20;;;28.20;89.30;;;;;;5048108;28;20120;-36
2022/08/24 11:44:20;;;;;;;1.15;1.05;;;28.30;89.30;;;;;;5046943;28;20488;-37
2022/08/24 11:47:02;;;;;;;2.63;0.98;;;28.30;89.20;;;;;;5047016;28;20033;-37
2022/08/24 11:49:42;;;;;;;1.10;1.00;;;28.30;89.10;;;;;;5047956;28;20029;-37
2022/08/24 11:52:35;;;;;;;0.82;0.80;;;28.30;88.70;;;;;;5047110;28;20040;-37
2022/08/24 11:55:17;;;;;;;0.73;0.73;;;28.40;89.30;;;;;;5047517;28;20029;-36
2022/08/24 11:58:10;;;;;;;1.13;1.00;;;28.30;88.60;;;;;;5046781;28;20047;-37
2022/08/24 12:00:52;;;;;;;2.05;0.90;;;28.30;88.50;;;;;;5027975;28;20038;-36
2022/08/24 12:03:53;;;;;;;3.58;0.90;;;28.30;88.60;;;;;;5047132;28;20025;-37
2022/08/24 12:06:36;;;;;;;2.55;0.90;;;28.30;88.50;;;;;;5047111;28;20041;-38
2022/08/24 12:09:34;;;;;;;1.75;0.93;;;28.30;88.50;;;;;;5046066;28;20469;-36
2022/08/24 12:12:12;;;;;;;1.50;1.02;;;28.30;88.50;;;;;;5046600;28;20028;-37
2022/08/24 12:15:01;;;;;;;0.80;0.80;;;28.30;88.40;;;;;;5047919;28;20044;-37
2022/08/24 12:17:37;;;;;;;1.23;1.00;;;28.30;88.40;;;;;;5047368;28;20040;-36
2022/08/24 12:20:30;;;;;;;1.08;0.98;;;28.30;88.40;;;;;;5046451;28;20048;-36
2022/08/24 12:23:01;;;;;;;0.88;0.88;;;28.40;88.40;;;;;;5046862;28;20543;-37
2022/08/24 12:28:21;;;;;;;2.15;1.10;;;28.50;88.00;;;;;;5048107;28;20178;-37
2022/08/24 12:30:47;;;;;;;;;;;28.60;87.40;;;;;;5047694;28;20115;-37
2022/08/24 12:33:15;;;;;;;1.00;0.90;;;28.70;87.40;;;;;;5046718;28;20474;-38
2022/08/24 12:35:53;;;;;;;1.05;0.90;;;28.70;87.10;;;;;;5046878;28;20433;-36
2022/08/24 12:38:26;;;;;;;1.13;1.10;;;28.70;86.90;;;;;;5047044;28;20025;-35
2022/08/24 12:40:56;;;;;;;1.20;1.10;;;28.70;86.80;;;;;;5044848;28;20420;-37
2022/08/24 12:43:38;;;;;;;0.95;0.95;;;28.80;86.80;;;;;;5047084;28;20575;-36
2022/08/24 12:46:05;;;;;;;0.90;0.90;;;28.80;86.70;;;;;;5047025;28;20029;-35
2022/08/24 12:48:54;;;;;;;1.73;1.20;;;28.80;86.70;;;;;;5045601;28;20491;-37
2022/08/24 12:51:50;;;;;;;3.38;1.20;;;28.80;86.20;;;;;;5043875;28;20036;-36
2022/08/24 12:54:43;;;;;;;1.23;1.00;;;28.80;85.90;;;;;;5044441;28;20033;-37
2022/08/24 12:57:47;;;;;;;1.60;1.35;;;28.80;85.80;;;;;;5027396;28;20087;-36
2022/08/24 13:00:16;;;;;;;0.90;0.90;;;28.80;85.80;;;;;;5042751;28;20029;-38
2022/08/24 13:02:44;;;;;;;2.13;1.27;;;28.80;85.80;;;;;;5042820;28;20028;-38
2022/08/24 13:05:16;;;;;;;1.38;1.00;;;28.90;85.90;;;;;;5045110;28;20065;-36
2022/08/24 13:07:48;;;;;;;1.38;1.20;;;29.00;85.70;;;;;;5046280;28;20021;-38
2022/08/24 13:10:32;;;;;;;;;;;29.10;85.10;;;;;;5046169;28;20032;-36
2022/08/24 13:13:03;;;;;;;1.30;1.20;;;29.20;84.60;;;;;;5046484;28;19963;-35
2022/08/24 13:15:29;;;;;;;1.25;1.15;;;29.40;84.50;;;;;;5045822;28;20144;-34
2022/08/24 13:18:17;;;;;;;1.30;1.08;;;29.50;84.20;;;;;;5046284;28;20166;-36
2022/08/24 13:20:42;;;;;;;0.73;0.73;;;29.60;84.00;;;;;;5041575;28;20403;-36
2022/08/24 13:23:11;;;;;;;1.00;1.00;;;29.80;83.80;;;;;;5045978;28;20476;-37
2022/08/24 13:25:46;;;;;;;1.50;1.23;;;30.00;83.50;;;;;;5046274;28;20036;-36
2022/08/24 13:28:21;;;;;;;1.40;1.30;;;30.10;83.00;;;;;;5026563;28;20025;-37
2022/08/24 13:30:52;;;;;;;1.95;1.30;;;30.20;81.80;;;;;;5041211;28;20029;-37